EKHS weather

CLOSED Hadsund Airfield
Hadsund, North Jutland, Denmark

Public forecast

Using degrees Celsius for public forecast. Weather courtesy of forecast.io.

Closest aviation weather report (METAR) to Hadsund Airfield

Closest report is Aalborg Airport, 23.7 nm (44.0 km) NNW. Retrieved 2019/12/10 21:20 UTC (0 seconds ago):

EKYT 102120Z AUTO 18020KT 9999 -RA FEW024/// SCT031/// BKN042/// BKN065/// 04/02 Q1002

Closest aviation forecast (TAF) to Hadsund Airfield

Closest forecast is Aalborg Airport, 23.7 nm (44.0 km) NNW. Retrieved 2019/12/10 21:20 UTC (0 seconds ago):

TAF EKYT 102010Z 1021/1121 18022G35KT 9999 BKN040 BECMG 1021/1024 6000 -RADZ BKN014 TEMPO 1100/1105 3000 RA BKN008 BECMG 1103/1105 20012KT BECMG 1105/1108 9999 NSW BKN030